Time;durP1;ratioP1;P1;durP2;ratioP2;P2;SDS_P1;SDS_P2;PMS_P1;PMS_P2;Temp;Humidity;BMP_temperature;BMP_pressure;BME280_temperature;BME280_humidity;BME280_pressure;Samples;Min_cycle;Max_cycle;Signal;HPM_P1;HPM_P2
2022/10/14 00:01:46;;;;;;;6.17;4.57;;;;;;;;;;5156308;27;20248;-78
2022/10/14 00:04:14;;;;;;;7.87;4.80;;;;;;;;;;5156501;27;20196;-78
2022/10/14 00:06:42;;;;;;;8.80;4.87;;;;;;;;;;5155706;27;20291;-78
2022/10/14 00:09:10;;;;;;;7.17;4.37;;;;;;;;;;5159821;27;20307;-78
2022/10/14 00:11:39;;;;;;;9.53;4.57;;;;;;;;;;5156016;27;20738;-78
2022/10/14 00:14:08;;;;;;;7.57;4.50;;;;;;;;;;5156394;27;20572;-78
2022/10/14 00:16:36;;;;;;;5.87;3.97;;;;;;;;;;5156256;27;20261;-77
2022/10/14 00:19:03;;;;;;;8.00;3.60;;;;;;;;;;5155752;27;20224;-78
2022/10/14 00:21:32;;;;;;;6.20;3.77;;;;;;;;;;5156253;27;20397;-77
2022/10/14 00:23:59;;;;;;;6.27;3.50;;;;;;;;;;5155818;27;20228;-77
2022/10/14 00:26:27;;;;;;;6.57;3.70;;;;;;;;;;5156731;27;20347;-77
2022/10/14 00:28:55;;;;;;;4.87;3.33;;;;;;;;;;5155220;27;20255;-77
2022/10/14 00:31:22;;;;;;;6.70;3.50;;;;;;;;;;5155715;27;20231;-77
2022/10/14 00:33:49;;;;;;;5.90;3.00;;;;;;;;;;5155551;27;20711;-78
2022/10/14 00:36:18;;;;;;;5.60;3.00;;;;;;;;;;5155998;27;20291;-77
2022/10/14 00:38:47;;;;;;;4.57;2.93;;;;;;;;;;5156614;27;20300;-77
2022/10/14 00:41:14;;;;;;;4.60;3.03;;;;;;;;;;5156046;27;20235;-78
2022/10/14 00:43:55;;;;;;;3.83;2.60;;;;;;;;;;5155789;27;20280;-78
2022/10/14 00:46:22;;;;;;;3.53;2.50;;;;;;;;;;5151465;27;20287;-78
2022/10/14 00:48:50;;;;;;;4.33;2.83;;;;;;;;;;5155997;27;20231;-77
2022/10/14 00:51:17;;;;;;;5.40;2.43;;;;;;;;;;5155612;27;20204;-78
2022/10/14 00:53:47;;;;;;;3.10;2.50;;;;;;;;;;5155296;27;20284;-77
2022/10/14 00:56:15;;;;;;;5.30;2.33;;;;;;;;;;5154884;27;20224;-77
2022/10/14 00:58:44;;;;;;;4.67;2.70;;;;;;;;;;5155200;27;20747;-78
2022/10/14 01:01:11;;;;;;;4.50;3.07;;;;;;;;;;5154249;27;20291;-78
2022/10/14 01:03:38;;;;;;;7.00;3.00;;;;;;;;;;5155466;27;20287;-78
2022/10/14 01:06:19;;;;;;;6.17;3.40;;;;;;;;;;5155672;27;20223;-77
2022/10/14 01:08:53;;;;;;;6.67;3.50;;;;;;;;;;5148795;27;20311;-78
2022/10/14 01:11:26;;;;;;;5.53;3.40;;;;;;;;;;5155276;27;20228;-77
2022/10/14 01:13:57;;;;;;;5.93;3.83;;;;;;;;;;5155078;27;20235;-78
2022/10/14 01:16:26;;;;;;;5.57;3.23;;;;;;;;;;5154844;27;20235;-77
2022/10/14 01:18:59;;;;;;;5.80;4.00;;;;;;;;;;5155205;27;20212;-77
2022/10/14 01:21:27;;;;;;;5.03;3.50;;;;;;;;;;5154902;27;20697;-77
2022/10/14 01:24:08;;;;;;;5.40;3.70;;;;;;;;;;5155137;27;20227;-77
2022/10/14 01:26:50;;;;;;;5.30;3.70;;;;;;;;;;5155061;27;20283;-78
2022/10/14 01:29:23;;;;;;;6.43;4.07;;;;;;;;;;5151085;27;20299;-77
2022/10/14 01:31:55;;;;;;;7.13;4.20;;;;;;;;;;5146913;27;20284;-77
2022/10/14 01:34:26;;;;;;;5.43;3.73;;;;;;;;;;5154721;27;20283;-78
2022/10/14 01:36:56;;;;;;;7.53;3.90;;;;;;;;;;5146710;27;20227;-78
2022/10/14 01:39:25;;;;;;;4.83;3.67;;;;;;;;;;5154769;27;20278;-78
2022/10/14 01:41:55;;;;;;;6.57;4.10;;;;;;;;;;5154034;27;20734;-77
2022/10/14 01:44:23;;;;;;;8.27;4.27;;;;;;;;;;5154382;27;20232;-77
2022/10/14 01:46:53;;;;;;;5.27;3.90;;;;;;;;;;5154500;27;20283;-78
2022/10/14 01:49:24;;;;;;;7.57;4.17;;;;;;;;;;5154053;27;20284;-77
2022/10/14 01:51:53;;;;;;;5.83;4.10;;;;;;;;;;5153867;27;20227;-78
2022/10/14 01:54:23;;;;;;;7.53;4.37;;;;;;;;;;5154656;27;20235;-78
2022/10/14 01:56:51;;;;;;;6.73;4.23;;;;;;;;;;5154253;27;20276;-78
2022/10/14 01:59:19;;;;;;;6.53;4.20;;;;;;;;;;5154016;27;20627;-77
2022/10/14 02:01:46;;;;;;;8.20;4.30;;;;;;;;;;5153462;27;20710;-77
2022/10/14 02:04:19;;;;;;;8.03;4.47;;;;;;;;;;5154021;27;20719;-78
2022/10/14 02:06:49;;;;;;;7.00;4.60;;;;;;;;;;5154158;27;20275;-78
2022/10/14 02:09:21;;;;;;;5.87;4.07;;;;;;;;;;5151865;27;20304;-78
2022/10/14 02:11:55;;;;;;;7.30;4.40;;;;;;;;;;5150382;27;20203;-77
2022/10/14 02:14:28;;;;;;;7.60;4.80;;;;;;;;;;5154311;27;20203;-78
2022/10/14 02:17:00;;;;;;;7.03;4.20;;;;;;;;;;5157605;27;20733;-77
2022/10/14 02:19:31;;;;;;;5.67;4.30;;;;;;;;;;5154275;27;20667;-77
2022/10/14 02:22:00;;;;;;;10.13;4.77;;;;;;;;;;5153947;27;20223;-77
2022/10/14 02:24:30;;;;;;;7.43;5.00;;;;;;;;;;5154194;27;20283;-78
2022/10/14 02:27:00;;;;;;;7.80;4.73;;;;;;;;;;5153561;27;20227;-78
2022/10/14 02:29:28;;;;;;;8.43;5.00;;;;;;;;;;5152674;27;20262;-78
2022/10/14 02:31:57;;;;;;;9.67;5.03;;;;;;;;;;5153548;27;20224;-77
2022/10/14 02:34:26;;;;;;;7.30;5.13;;;;;;;;;;5154202;27;20279;-77
2022/10/14 02:36:55;;;;;;;7.80;5.03;;;;;;;;;;5154109;27;20204;-78
2022/10/14 02:39:26;;;;;;;7.73;5.40;;;;;;;;;;5153740;27;20202;-78
2022/10/14 02:41:53;;;;;;;10.30;5.40;;;;;;;;;;5153455;27;20287;-78
2022/10/14 02:44:21;;;;;;;9.10;5.33;;;;;;;;;;5153934;27;20369;-78
2022/10/14 02:46:48;;;;;;;10.20;5.47;;;;;;;;;;5153793;27;20192;-78
2022/10/14 02:49:16;;;;;;;8.83;5.57;;;;;;;;;;5153067;27;20279;-78
2022/10/14 02:51:43;;;;;;;9.07;5.70;;;;;;;;;;5154183;27;20283;-77
2022/10/14 02:54:12;;;;;;;7.53;5.80;;;;;;;;;;5153877;27;20231;-78
2022/10/14 02:56:39;;;;;;;9.17;5.87;;;;;;;;;;5154005;27;20200;-78
2022/10/14 02:59:06;;;;;;;9.23;5.93;;;;;;;;;;5154197;27;20264;-78
2022/10/14 03:01:34;;;;;;;10.50;6.03;;;;;;;;;;5153110;27;20754;-77
2022/10/14 03:04:01;;;;;;;10.43;5.90;;;;;;;;;;5153362;27;20344;-78
2022/10/14 03:06:28;;;;;;;11.90;6.20;;;;;;;;;;5152453;27;20271;-77
2022/10/14 03:08:55;;;;;;;11.77;6.47;;;;;;;;;;5153077;27;20227;-77
2022/10/14 03:11:24;;;;;;;11.23;6.60;;;;;;;;;;5152989;27;20275;-78
2022/10/14 03:13:51;;;;;;;10.30;6.77;;;;;;;;;;5160895;27;20271;-78
2022/10/14 03:16:18;;;;;;;11.17;6.50;;;;;;;;;;5153200;27;20283;-77
2022/10/14 03:18:45;;;;;;;9.87;6.17;;;;;;;;;;5152933;27;20228;-78
2022/10/14 03:21:12;;;;;;;10.67;6.43;;;;;;;;;;5152905;27;20279;-78
2022/10/14 03:23:40;;;;;;;12.33;6.07;;;;;;;;;;5152893;27;20730;-78
2022/10/14 03:26:07;;;;;;;12.10;7.10;;;;;;;;;;5152601;27;20711;-78
2022/10/14 03:28:35;;;;;;;10.70;6.27;;;;;;;;;;5152939;27;20252;-78
2022/10/14 03:31:02;;;;;;;9.70;6.03;;;;;;;;;;5157093;27;20272;-78
2022/10/14 03:33:30;;;;;;;10.63;6.77;;;;;;;;;;5153626;27;20189;-77
2022/10/14 03:35:57;;;;;;;9.60;5.63;;;;;;;;;;5153030;27;20279;-78
2022/10/14 03:38:24;;;;;;;12.70;6.50;;;;;;;;;;5156126;27;20679;-78
2022/10/14 03:40:51;;;;;;;10.60;6.70;;;;;;;;;;5153606;27;20232;-77
2022/10/14 03:43:18;;;;;;;11.37;6.83;;;;;;;;;;5156354;27;20244;-77
2022/10/14 03:45:47;;;;;;;12.20;6.23;;;;;;;;;;5156724;27;20279;-78
2022/10/14 03:48:14;;;;;;;10.13;6.33;;;;;;;;;;5157103;27;20227;-78
2022/10/14 03:50:42;;;;;;;10.10;6.60;;;;;;;;;;5156949;27;20271;-78
2022/10/14 03:53:09;;;;;;;13.50;6.57;;;;;;;;;;5156293;27;20279;-78
2022/10/14 03:55:36;;;;;;;10.20;6.47;;;;;;;;;;5156452;27;20287;-78
2022/10/14 03:58:03;;;;;;;10.97;7.00;;;;;;;;;;5156136;27;20308;-78
2022/10/14 04:00:30;;;;;;;12.70;7.13;;;;;;;;;;5156602;27;20275;-77
2022/10/14 04:02:59;;;;;;;10.50;6.53;;;;;;;;;;5156247;27;20303;-77
2022/10/14 04:05:31;;;;;;;10.63;6.83;;;;;;;;;;5156792;27;20220;-78
2022/10/14 04:07:58;;;;;;;10.20;7.43;;;;;;;;;;5156404;27;20234;-77
2022/10/14 04:10:25;;;;;;;10.60;7.10;;;;;;;;;;5155919;27;20216;-78
2022/10/14 04:12:53;;;;;;;11.00;7.70;;;;;;;;;;5156702;27;20271;-78
2022/10/14 04:15:21;;;;;;;10.30;7.30;;;;;;;;;;5155755;27;20248;-78
2022/10/14 04:17:48;;;;;;;12.40;7.80;;;;;;;;;;5156839;27;20201;-78
2022/10/14 04:20:17;;;;;;;7.47;5.07;;;;;;;;;;5156332;27;20231;-78
2022/10/14 04:22:44;;;;;;;7.07;4.80;;;;;;;;;;5156792;27;20300;-78
2022/10/14 04:25:11;;;;;;;7.40;4.97;;;;;;;;;;5156117;27;20296;-78
2022/10/14 04:27:39;;;;;;;7.90;4.97;;;;;;;;;;5158630;27;20279;-78
2022/10/14 04:30:06;;;;;;;9.30;5.10;;;;;;;;;;5160459;27;20240;-78
2022/10/14 04:32:34;;;;;;;8.23;5.07;;;;;;;;;;5160198;27;20223;-78
2022/10/14 04:35:01;;;;;;;11.90;5.70;;;;;;;;;;5156298;27;20628;-78
2022/10/14 04:37:30;;;;;;;8.70;5.57;;;;;;;;;;5156053;27;20276;-78
2022/10/14 04:39:58;;;;;;;9.43;6.37;;;;;;;;;;5155847;27;20287;-78
2022/10/14 04:42:25;;;;;;;7.60;6.33;;;;;;;;;;5155594;27;20196;-78
2022/10/14 04:44:53;;;;;;;8.60;6.13;;;;;;;;;;5156330;27;20196;-78
2022/10/14 04:47:20;;;;;;;8.37;6.40;;;;;;;;;;5162538;27;20220;-78
2022/10/14 04:49:59;;;;;;;6.53;5.23;;;;;;;;;;5156049;27;20235;-78
2022/10/14 04:52:26;;;;;;;6.27;5.17;;;;;;;;;;5151699;27;20232;-78
2022/10/14 04:54:55;;;;;;;7.03;4.40;;;;;;;;;;5154541;27;20290;-78
2022/10/14 04:57:22;;;;;;;5.37;4.13;;;;;;;;;;5154823;27;20369;-77
2022/10/14 04:59:49;;;;;;;5.13;4.07;;;;;;;;;;5159544;27;20759;-78
2022/10/14 05:02:16;;;;;;;6.17;3.93;;;;;;;;;;5155193;27;20750;-78
2022/10/14 05:04:44;;;;;;;6.27;4.17;;;;;;;;;;5154004;27;20778;-79
2022/10/14 05:07:11;;;;;;;6.40;4.00;;;;;;;;;;5154364;27;20296;-77
2022/10/14 05:09:39;;;;;;;5.07;3.90;;;;;;;;;;5154515;27;20232;-78
2022/10/14 05:12:08;;;;;;;6.47;4.10;;;;;;;;;;5158240;27;20220;-79
2022/10/14 05:14:35;;;;;;;4.50;3.67;;;;;;;;;;5155335;27;20280;-79
2022/10/14 05:17:02;;;;;;;10.47;4.23;;;;;;;;;;5155854;27;20200;-79
2022/10/14 05:19:29;;;;;;;6.50;3.80;;;;;;;;;;5155921;27;20287;-79
2022/10/14 05:21:56;;;;;;;5.50;4.10;;;;;;;;;;5154712;27;20287;-79
2022/10/14 05:24:24;;;;;;;6.40;4.00;;;;;;;;;;5155015;27;20251;-79
2022/10/14 05:26:51;;;;;;;6.17;4.27;;;;;;;;;;5174834;27;20235;-79
2022/10/14 05:29:19;;;;;;;6.63;4.53;;;;;;;;;;5164061;27;20271;-79
2022/10/14 05:31:47;;;;;;;6.80;4.37;;;;;;;;;;5155196;27;20719;-79
2022/10/14 05:34:14;;;;;;;8.23;5.50;;;;;;;;;;5153641;27;20216;-79
2022/10/14 05:36:41;;;;;;;7.80;5.47;;;;;;;;;;5157045;27;20283;-79
2022/10/14 05:39:10;;;;;;;6.97;6.23;;;;;;;;;;5154792;27;20245;-79
2022/10/14 05:41:37;;;;;;;6.87;6.10;;;;;;;;;;5153895;27;20687;-80
2022/10/14 05:44:05;;;;;;;9.27;6.50;;;;;;;;;;5154638;27;20220;-80
2022/10/14 05:46:33;;;;;;;6.63;5.93;;;;;;;;;;5154978;27;20200;-79
2022/10/14 05:49:04;;;;;;;9.27;6.50;;;;;;;;;;5155143;27;20279;-79
2022/10/14 05:51:32;;;;;;;9.67;7.00;;;;;;;;;;5154704;27;20208;-79
2022/10/14 05:53:59;;;;;;;9.23;6.73;;;;;;;;;;5155244;27;20607;-79
2022/10/14 05:56:26;;;;;;;8.57;6.77;;;;;;;;;;5154588;27;20197;-79
2022/10/14 05:58:54;;;;;;;9.83;6.73;;;;;;;;;;5155193;27;20235;-79
2022/10/14 06:01:21;;;;;;;9.90;7.10;;;;;;;;;;5154827;27;20235;-80
2022/10/14 06:03:51;;;;;;;8.97;6.80;;;;;;;;;;5154004;27;20307;-79
2022/10/14 06:06:19;;;;;;;8.70;6.93;;;;;;;;;;5153806;27;20287;-79
2022/10/14 06:08:46;;;;;;;10.43;7.70;;;;;;;;;;5153919;27;20267;-79
2022/10/14 06:11:13;;;;;;;9.97;7.53;;;;;;;;;;5154146;27;20224;-79
2022/10/14 06:13:40;;;;;;;10.13;7.60;;;;;;;;;;5153647;27;20275;-79
2022/10/14 06:16:08;;;;;;;9.43;7.50;;;;;;;;;;5154205;27;20657;-78
2022/10/14 06:18:36;;;;;;;10.37;7.00;;;;;;;;;;5154553;27;20228;-79
2022/10/14 06:21:06;;;;;;;9.30;6.77;;;;;;;;;;5154404;27;20287;-79
2022/10/14 06:23:33;;;;;;;10.03;6.57;;;;;;;;;;5154503;27;20726;-79
2022/10/14 06:26:03;;;;;;;8.73;6.37;;;;;;;;;;5154420;27;20208;-79
2022/10/14 06:28:30;;;;;;;7.70;6.23;;;;;;;;;;5154464;27;20236;-79
2022/10/14 06:30:58;;;;;;;8.23;6.13;;;;;;;;;;5154005;27;20275;-79
2022/10/14 06:33:25;;;;;;;7.73;6.10;;;;;;;;;;5154245;27;20283;-79
2022/10/14 06:35:52;;;;;;;8.33;5.37;;;;;;;;;;5154352;27;20283;-79
2022/10/14 06:38:21;;;;;;;7.50;5.47;;;;;;;;;;5154588;27;20232;-79
2022/10/14 06:40:50;;;;;;;8.40;5.83;;;;;;;;;;5153941;27;20709;-79
2022/10/14 06:43:17;;;;;;;7.07;5.60;;;;;;;;;;5154183;27;20303;-78
2022/10/14 06:45:44;;;;;;;7.97;5.60;;;;;;;;;;5154219;27;20667;-79
2022/10/14 06:48:11;;;;;;;7.43;5.20;;;;;;;;;;5154137;27;20620;-78
2022/10/14 06:50:39;;;;;;;7.23;5.40;;;;;;;;;;5153720;27;20762;-78
2022/10/14 06:53:06;;;;;;;6.47;4.40;;;;;;;;;;5154109;27;20196;-79
2022/10/14 06:55:34;;;;;;;6.23;4.20;;;;;;;;;;5154222;27;20235;-79
2022/10/14 06:58:02;;;;;;;5.50;3.90;;;;;;;;;;5153870;27;20281;-79
2022/10/14 07:00:29;;;;;;;5.87;3.80;;;;;;;;;;5154052;27;20660;-79
2022/10/14 07:02:58;;;;;;;5.60;3.80;;;;;;;;;;5153866;27;20231;-79
2022/10/14 07:05:25;;;;;;;4.80;3.50;;;;;;;;;;5154374;27;20239;-79
2022/10/14 07:07:52;;;;;;;5.30;4.00;;;;;;;;;;5154193;27;20227;-79
2022/10/14 07:10:19;;;;;;;4.60;3.90;;;;;;;;;;5154133;27;20610;-79
2022/10/14 07:12:48;;;;;;;6.70;4.30;;;;;;;;;;5154189;27;20277;-79
2022/10/14 07:15:15;;;;;;;4.40;3.60;;;;;;;;;;5153783;27;20272;-79
2022/10/14 07:17:42;;;;;;;4.20;3.20;;;;;;;;;;5157807;27;20196;-79
2022/10/14 07:20:11;;;;;;;5.00;3.30;;;;;;;;;;5158235;27;20287;-79
2022/10/14 07:22:38;;;;;;;4.57;3.50;;;;;;;;;;5158018;27;20256;-79
2022/10/14 07:25:05;;;;;;;4.13;3.30;;;;;;;;;;5157871;27;20255;-79
2022/10/14 07:27:32;;;;;;;4.50;3.20;;;;;;;;;;5157925;27;20702;-79
2022/10/14 07:30:01;;;;;;;6.73;3.80;;;;;;;;;;5157724;27;20682;-79
2022/10/14 07:32:28;;;;;;;4.00;3.40;;;;;;;;;;5157421;27;20283;-79
2022/10/14 07:34:55;;;;;;;4.57;3.40;;;;;;;;;;5158221;27;20632;-79
2022/10/14 07:37:23;;;;;;;3.70;3.10;;;;;;;;;;5157676;27;20224;-79
2022/10/14 07:39:50;;;;;;;3.67;2.93;;;;;;;;;;5157875;27;20239;-79
2022/10/14 07:42:17;;;;;;;3.67;3.23;;;;;;;;;;5157568;27;20286;-79
2022/10/14 07:44:44;;;;;;;3.77;2.93;;;;;;;;;;5156960;27;20261;-79
2022/10/14 07:47:13;;;;;;;3.07;2.67;;;;;;;;;;5157298;27;20283;-79
2022/10/14 07:49:40;;;;;;;3.90;2.87;;;;;;;;;;5157793;27;20192;-78
2022/10/14 07:52:07;;;;;;;3.43;2.63;;;;;;;;;;5157454;27;20283;-79
2022/10/14 07:54:34;;;;;;;3.07;2.40;;;;;;;;;;5157574;27;20292;-79
2022/10/14 07:57:02;;;;;;;3.63;2.60;;;;;;;;;;5157609;27;20337;-79
2022/10/14 07:59:29;;;;;;;3.13;2.50;;;;;;;;;;5156789;27;20275;-79
2022/10/14 08:01:56;;;;;;;2.47;2.20;;;;;;;;;;5157356;27;20283;-79
2022/10/14 08:04:25;;;;;;;2.70;2.10;;;;;;;;;;5157104;27;20299;-79
2022/10/14 08:06:54;;;;;;;2.80;2.10;;;;;;;;;;5157525;27;20282;-79
2022/10/14 08:09:21;;;;;;;2.53;2.10;;;;;;;;;;5156769;27;20315;-79
2022/10/14 08:11:48;;;;;;;3.57;2.30;;;;;;;;;;5157069;27;20197;-79
2022/10/14 08:14:15;;;;;;;3.90;2.00;;;;;;;;;;5156611;27;20335;-79
2022/10/14 08:16:42;;;;;;;2.97;2.27;;;;;;;;;;5156217;27;20659;-79
2022/10/14 08:19:11;;;;;;;2.47;2.10;;;;;;;;;;5156861;27;20715;-79
2022/10/14 08:21:40;;;;;;;3.60;2.90;;;;;;;;;;5156962;27;20235;-79
2022/10/14 08:24:07;;;;;;;3.30;3.00;;;;;;;;;;5156810;27;20219;-79
2022/10/14 08:26:35;;;;;;;4.70;3.10;;;;;;;;;;5156512;27;20231;-79
2022/10/14 08:29:03;;;;;;;3.90;3.10;;;;;;;;;;5155831;27;20265;-78
2022/10/14 08:31:31;;;;;;;3.40;2.77;;;;;;;;;;5156240;27;20196;-78
2022/10/14 08:33:58;;;;;;;3.80;3.30;;;;;;;;;;5156879;27;20204;-78
2022/10/14 08:36:25;;;;;;;4.60;3.27;;;;;;;;;;5156054;27;20637;-78
2022/10/14 08:38:54;;;;;;;3.67;3.13;;;;;;;;;;5156648;27;20279;-78
2022/10/14 08:41:27;;;;;;;3.40;2.80;;;;;;;;;;5156370;27;20200;-79
2022/10/14 08:44:02;;;;;;;3.07;2.67;;;;;;;;;;5156397;27;20255;-78
2022/10/14 08:46:33;;;;;;;2.90;2.60;;;;;;;;;;5156483;27;20200;-78
2022/10/14 08:49:02;;;;;;;3.60;2.87;;;;;;;;;;5156275;27;20228;-79
2022/10/14 08:51:30;;;;;;;4.17;3.07;;;;;;;;;;5155663;27;20283;-78
2022/10/14 08:54:04;;;;;;;3.83;2.90;;;;;;;;;;5156306;27;20227;-78
2022/10/14 08:56:32;;;;;;;4.33;2.60;;;;;;;;;;5152400;27;20283;-78
2022/10/14 08:59:01;;;;;;;3.53;2.47;;;;;;;;;;5155840;27;20243;-78
2022/10/14 09:01:29;;;;;;;2.37;1.97;;;;;;;;;;5156058;27;20640;-78
2022/10/14 09:03:58;;;;;;;3.30;2.37;;;;;;;;;;5155842;27;20311;-78
2022/10/14 09:06:26;;;;;;;2.63;2.13;;;;;;;;;;5155996;27;20283;-78
2022/10/14 09:08:55;;;;;;;3.03;2.50;;;;;;;;;;5155959;27;20266;-78
2022/10/14 09:11:24;;;;;;;3.57;2.33;;;;;;;;;;5156186;27;20279;-78
2022/10/14 09:13:52;;;;;;;4.60;2.70;;;;;;;;;;5155615;27;20201;-78
2022/10/14 09:16:21;;;;;;;3.00;2.67;;;;;;;;;;5156148;27;20249;-78
2022/10/14 09:18:50;;;;;;;3.37;3.03;;;;;;;;;;5155807;27;20239;-78
2022/10/14 09:21:25;;;;;;;3.03;2.73;;;;;;;;;;5155591;27;20224;-78
2022/10/14 09:23:57;;;;;;;4.33;3.20;;;;;;;;;;5155692;27;20196;-78
2022/10/14 09:26:27;;;;;;;5.30;4.30;;;;;;;;;;5154875;27;20291;-78
2022/10/14 09:28:54;;;;;;;4.80;3.80;;;;;;;;;;5155491;27;20254;-78
2022/10/14 09:31:21;;;;;;;4.23;3.20;;;;;;;;;;5155234;27;20279;-78
2022/10/14 09:33:48;;;;;;;4.23;3.83;;;;;;;;;;5155608;27;20227;-79
2022/10/14 09:36:17;;;;;;;4.63;4.10;;;;;;;;;;5155204;27;20276;-78
2022/10/14 09:38:45;;;;;;;4.97;3.90;;;;;;;;;;5154872;27;20198;-79
2022/10/14 09:41:14;;;;;;;4.50;4.03;;;;;;;;;;5154825;27;20743;-79
2022/10/14 09:44:04;;;;;;;5.43;4.00;;;;;;;;;;5154689;27;20583;-78
2022/10/14 09:46:31;;;;;;;6.07;3.60;;;;;;;;;;5155011;27;20279;-79
2022/10/14 09:48:58;;;;;;;4.20;3.57;;;;;;;;;;5155082;27;20223;-78
2022/10/14 09:51:28;;;;;;;3.40;3.00;;;;;;;;;;5155053;27;20275;-78
2022/10/14 09:53:56;;;;;;;12.35;3.53;;;;;;;;;;5154704;27;20239;-78
2022/10/14 09:56:29;;;;;;;3.40;2.90;;;;;;;;;;5154557;27;20279;-78
2022/10/14 09:58:58;;;;;;;3.72;3.10;;;;;;;;;;5154867;27;20227;-78
2022/10/14 10:01:26;;;;;;;3.17;2.83;;;;;;;;;;5154506;27;20691;-78
2022/10/14 10:03:54;;;;;;;4.35;2.30;;;;;;;;;;5154881;27;20277;-78
2022/10/14 10:06:24;;;;;;;3.40;2.70;;;;;;;;;;5154735;27;20212;-78
2022/10/14 10:08:55;;;;;;;3.22;2.50;;;;;;;;;;5154221;27;20257;-78
2022/10/14 10:11:28;;;;;;;4.05;2.45;;;;;;;;;;5154693;27;20294;-78
2022/10/14 10:13:55;;;;;;;3.22;2.40;;;;;;;;;;5154976;27;20200;-78
2022/10/14 10:16:25;;;;;;;5.18;2.58;;;;;;;;;;5154695;27;20618;-78
2022/10/14 10:18:54;;;;;;;2.50;2.30;;;;;;;;;;5154853;27;20283;-78
2022/10/14 10:21:24;;;;;;;6.10;2.88;;;;;;;;;;5154983;27;20228;-78
2022/10/14 10:23:52;;;;;;;4.03;2.35;;;;;;;;;;5154541;27;20200;-78
2022/10/14 10:26:25;;;;;;;5.25;2.30;;;;;;;;;;5154253;27;20246;-78
2022/10/14 10:28:53;;;;;;;5.57;2.47;;;;;;;;;;5153858;27;20624;-78
2022/10/14 10:31:39;;;;;;;4.35;2.30;;;;;;;;;;5154265;27;20624;-78
2022/10/14 10:34:17;;;;;;;4.53;2.33;;;;;;;;;;5133773;27;20393;-79
2022/10/14 10:36:47;;;;;;;3.17;2.00;;;;;;;;;;5134075;27;20300;-78
2022/10/14 10:39:21;;;;;;;5.45;2.20;;;;;;;;;;5133791;27;20197;-78
2022/10/14 10:41:57;;;;;;;5.65;1.73;;;;;;;;;;5137288;27;20316;-79
2022/10/14 10:44:39;;;;;;;6.05;1.95;;;;;;;;;;5153391;27;20562;-79
2022/10/14 10:47:19;;;;;;;9.50;2.00;;;;;;;;;;5150576;27;20603;-78
2022/10/14 10:49:56;;;;;;;4.25;1.45;;;;;;;;;;5154029;27;20196;-78
2022/10/14 10:52:29;;;;;;;4.97;1.50;;;;;;;;;;5158221;27;20288;-78
2022/10/14 10:54:59;;;;;;;5.78;1.75;;;;;;;;;;5158613;27;20196;-79
2022/10/14 10:57:33;;;;;;;4.63;1.70;;;;;;;;;;5158201;27;20235;-79
2022/10/14 11:00:02;;;;;;;6.20;1.77;;;;;;;;;;5157779;27;20282;-79
2022/10/14 11:02:44;;;;;;;4.25;1.75;;;;;;;;;;5158485;27;20256;-78
2022/10/14 11:05:16;;;;;;;4.75;1.50;;;;;;;;;;5158253;27;20256;-78
2022/10/14 11:13:31;;;;;;;5.88;1.60;;;;;;;;;;5157724;27;20203;-79
2022/10/14 11:16:00;;;;;;;6.75;1.80;;;;;;;;;;5158378;27;20231;-79
2022/10/14 11:18:31;;;;;;;5.47;1.67;;;;;;;;;;5158284;27;20298;-78
2022/10/14 11:21:05;;;;;;;6.72;1.90;;;;;;;;;;5158108;27;20636;-78
2022/10/14 11:23:39;;;;;;;8.10;1.92;;;;;;;;;;5157696;27;20231;-78
2022/10/14 11:26:11;;;;;;;4.45;1.50;;;;;;;;;;5158044;27;20220;-79
2022/10/14 11:28:42;;;;;;;4.00;1.20;;;;;;;;;;5158081;27;20268;-79
2022/10/14 11:31:13;;;;;;;3.33;1.30;;;;;;;;;;5157811;27;20676;-78
2022/10/14 11:33:46;;;;;;;2.95;1.23;;;;;;;;;;5158105;27;20252;-78
2022/10/14 11:36:19;;;;;;;4.32;1.40;;;;;;;;;;5157698;27;20234;-78
2022/10/14 11:38:55;;;;;;;4.63;1.48;;;;;;;;;;5157474;27;20280;-78
2022/10/14 11:41:31;;;;;;;3.10;1.52;;;;;;;;;;5157522;27;20242;-78
2022/10/14 11:44:03;;;;;;;3.35;1.17;;;;;;;;;;5148877;27;20196;-78
2022/10/14 11:46:34;;;;;;;3.95;1.30;;;;;;;;;;5156991;27;20244;-78
2022/10/14 11:49:03;;;;;;;3.13;1.20;;;;;;;;;;5157052;27;20192;-79
2022/10/14 11:51:33;;;;;;;3.80;1.30;;;;;;;;;;5149843;27;20220;-79
2022/10/14 11:54:03;;;;;;;2.53;1.27;;;;;;;;;;5149092;27;20227;-78
2022/10/14 11:56:38;;;;;;;4.22;1.70;;;;;;;;;;5160257;27;20199;-78
2022/10/14 11:59:11;;;;;;;4.03;1.50;;;;;;;;;;5155891;27;20191;-78
2022/10/14 12:01:41;;;;;;;4.28;1.35;;;;;;;;;;5156817;27;20649;-79
2022/10/14 12:04:13;;;;;;;2.72;1.00;;;;;;;;;;5156934;27;20637;-78
2022/10/14 12:06:44;;;;;;;4.50;1.23;;;;;;;;;;5156083;27;20624;-79
2022/10/14 12:09:17;;;;;;;2.40;1.30;;;;;;;;;;5156520;27;20319;-79
2022/10/14 12:11:46;;;;;;;2.95;1.10;;;;;;;;;;5156579;27;20220;-78
2022/10/14 12:14:16;;;;;;;1.60;0.80;;;;;;;;;;5157405;27;20228;-78
2022/10/14 12:16:45;;;;;;;1.45;0.80;;;;;;;;;;5164877;27;20282;-78
2022/10/14 12:19:13;;;;;;;3.20;1.30;;;;;;;;;;5156578;27;20279;-79
2022/10/14 12:21:47;;;;;;;3.00;1.10;;;;;;;;;;5156157;27;20286;-79
2022/10/14 12:24:16;;;;;;;2.28;0.95;;;;;;;;;;5156509;27;20735;-78
2022/10/14 12:26:47;;;;;;;1.88;1.00;;;;;;;;;;5156324;27;20661;-77
2022/10/14 12:29:16;;;;;;;3.50;1.17;;;;;;;;;;5160147;27;20211;-79
2022/10/14 12:31:48;;;;;;;2.60;1.35;;;;;;;;;;5167488;27;20287;-78
2022/10/14 12:34:17;;;;;;;5.00;1.30;;;;;;;;;;5156527;27;20284;-78
2022/10/14 12:36:47;;;;;;;3.70;1.40;;;;;;;;;;5154816;27;20196;-78
2022/10/14 12:39:38;;;;;;;4.97;1.73;;;;;;;;;;5156243;27;20216;-79
2022/10/14 12:42:09;;;;;;;3.10;1.00;;;;;;;;;;5130682;27;20288;-79
2022/10/14 12:44:42;;;;;;;2.85;1.10;;;;;;;;;;5156252;27;20280;-78
2022/10/14 12:47:16;;;;;;;3.30;1.00;;;;;;;;;;5155522;27;20223;-79
2022/10/14 12:49:47;;;;;;;2.05;0.70;;;;;;;;;;5156178;27;20236;-78
2022/10/14 12:52:19;;;;;;;3.08;0.80;;;;;;;;;;5155768;27;20280;-78
2022/10/14 12:54:48;;;;;;;2.13;0.70;;;;;;;;;;5155550;27;20231;-79
2022/10/14 12:57:20;;;;;;;2.00;1.13;;;;;;;;;;5155467;27;20243;-78
2022/10/14 12:59:50;;;;;;;2.42;1.40;;;;;;;;;;5155424;27;20192;-79
2022/10/14 13:02:19;;;;;;;3.13;1.30;;;;;;;;;;5155341;27;20231;-78
2022/10/14 13:04:49;;;;;;;2.90;1.35;;;;;;;;;;5155830;27;20283;-78
2022/10/14 13:07:32;;;;;;;1.48;1.27;;;;;;;;;;5154583;27;20251;-78
2022/10/14 13:09:59;;;;;;;2.88;1.30;;;;;;;;;;5155075;27;20260;-78
2022/10/14 13:12:42;;;;;;;3.83;1.17;;;;;;;;;;5155366;27;20641;-78
2022/10/14 13:15:28;;;;;;;3.65;1.40;;;;;;;;;;5154518;27;20204;-78
2022/10/14 13:17:55;;;;;;;3.60;1.15;;;;;;;;;;5155491;27;20279;-78
2022/10/14 13:20:41;;;;;;;3.78;1.40;;;;;;;;;;5154747;27;20223;-78
2022/10/14 13:23:25;;;;;;;1.90;0.98;;;;;;;;;;5154923;27;20204;-78
2022/10/14 13:25:53;;;;;;;3.22;1.40;;;;;;;;;;5155776;27;20220;-78
2022/10/14 13:28:27;;;;;;;3.53;1.20;;;;;;;;;;5155268;27;20235;-78
2022/10/14 13:30:59;;;;;;;4.68;1.60;;;;;;;;;;5155224;27;20200;-79
2022/10/14 13:33:30;;;;;;;4.22;1.42;;;;;;;;;;5153799;27;20253;-78
2022/10/14 13:36:02;;;;;;;5.60;1.73;;;;;;;;;;5155330;27;20306;-79
2022/10/14 13:38:32;;;;;;;4.43;1.58;;;;;;;;;;5155489;27;20227;-78
2022/10/14 13:41:00;;;;;;;3.30;1.75;;;;;;;;;;5154893;27;20279;-78
2022/10/14 13:43:29;;;;;;;3.83;1.52;;;;;;;;;;5154873;27;20283;-78
2022/10/14 13:45:58;;;;;;;4.65;1.60;;;;;;;;;;5154969;27;20273;-78
2022/10/14 13:48:30;;;;;;;2.42;1.52;;;;;;;;;;5154261;27;20196;-79
2022/10/14 13:51:06;;;;;;;3.08;1.52;;;;;;;;;;5152218;27;20192;-78
2022/10/14 13:53:35;;;;;;;2.13;1.33;;;;;;;;;;5153767;27;20746;-79
2022/10/14 13:56:02;;;;;;;2.38;1.52;;;;;;;;;;5158856;27;20246;-78
2022/10/14 13:58:29;;;;;;;4.72;1.90;;;;;;;;;;5152904;27;20228;-78
2022/10/14 14:01:01;;;;;;;2.20;1.50;;;;;;;;;;5153693;27;20192;-78
2022/10/14 14:03:30;;;;;;;2.97;1.60;;;;;;;;;;5153372;27;20644;-79
2022/10/14 14:05:59;;;;;;;2.80;1.50;;;;;;;;;;5153673;27;20770;-78
2022/10/14 14:08:27;;;;;;;2.85;1.50;;;;;;;;;;5153552;27;20738;-79
2022/10/14 14:10:58;;;;;;;4.68;1.30;;;;;;;;;;5153752;27;20275;-78
2022/10/14 14:13:26;;;;;;;4.38;1.60;;;;;;;;;;5153603;27;20200;-78
2022/10/14 14:15:55;;;;;;;4.70;1.40;;;;;;;;;;5153542;27;20235;-78
2022/10/14 14:18:34;;;;;;;3.63;1.60;;;;;;;;;;5153863;27;20220;-78
2022/10/14 14:21:01;;;;;;;3.20;1.60;;;;;;;;;;5154242;27;20224;-78
2022/10/14 14:23:28;;;;;;;4.15;1.83;;;;;;;;;;5154506;27;20275;-78
2022/10/14 14:25:57;;;;;;;3.53;1.65;;;;;;;;;;5155813;27;20255;-78
2022/10/14 14:28:27;;;;;;;3.55;1.50;;;;;;;;;;5154467;27;20275;-78
2022/10/14 14:30:55;;;;;;;3.35;1.55;;;;;;;;;;5153122;27;20291;-79
2022/10/14 14:33:25;;;;;;;3.38;1.65;;;;;;;;;;5152521;27;20297;-78
2022/10/14 14:35:54;;;;;;;3.72;1.90;;;;;;;;;;5153818;27;20275;-78
2022/10/14 14:38:25;;;;;;;4.75;1.70;;;;;;;;;;5151745;27;20283;-78
2022/10/14 14:41:01;;;;;;;3.88;1.70;;;;;;;;;;5159061;27;20249;-78
2022/10/14 14:43:30;;;;;;;5.65;1.60;;;;;;;;;;5153212;27;20235;-78
2022/10/14 14:45:57;;;;;;;4.28;1.90;;;;;;;;;;5151230;27;20227;-78
2022/10/14 14:48:24;;;;;;;3.85;2.10;;;;;;;;;;5152724;27;20287;-79
2022/10/14 14:50:52;;;;;;;5.32;2.00;;;;;;;;;;5157557;27;20574;-78
2022/10/14 14:53:20;;;;;;;4.45;1.80;;;;;;;;;;5155940;27;20770;-78
2022/10/14 14:55:59;;;;;;;5.60;1.83;;;;;;;;;;5153105;27;20211;-78
2022/10/14 14:58:30;;;;;;;4.47;2.33;;;;;;;;;;5158099;27;20200;-77
2022/10/14 15:00:57;;;;;;;3.13;2.35;;;;;;;;;;5146511;27;20238;-78